Time;durP1;ratioP1;P1;durP2;ratioP2;P2;SDS_P1;SDS_P2;PMS_P1;PMS_P2;Temp;Humidity;BMP_temperature;BMP_pressure;BME280_temperature;BME280_humidity;BME280_pressure;Samples;Min_cycle;Max_cycle;Signal;HPM_P1;HPM_P2
2023/04/20 00:00:49;;;;;;;9.80;1.20;;;;;;;9.98;100.00;99303.92;105487;1254;60479;-50
2023/04/20 00:03:20;;;;;;;15.40;0.80;;;;;;;9.97;100.00;99303.96;106242;1253;75306;-49
2023/04/20 00:05:48;;;;;;;17.10;1.40;;;;;;;9.96;100.00;99300.13;105484;1254;68642;-50
2023/04/20 00:08:17;;;;;;;14.90;0.90;;;;;;;9.95;100.00;99298.50;109050;1252;72903;-49
2023/04/20 00:10:45;;;;;;;13.90;0.90;;;;;;;9.95;100.00;99297.98;109258;1253;60787;-48
2023/04/20 00:13:13;;;;;;;17.90;1.80;;;;;;;9.95;100.00;99298.17;109223;1253;61167;-49
2023/04/20 00:15:41;;;;;;;20.60;0.80;;;;;;;9.95;100.00;99297.11;109249;1253;73370;-51
2023/04/20 00:18:09;;;;;;;14.10;0.80;;;;;;;9.95;100.00;99298.04;109211;1253;65418;-50
2023/04/20 00:20:38;;;;;;;13.10;1.10;;;;;;;9.95;100.00;99300.70;105738;1254;73613;-46
2023/04/20 00:23:06;;;;;;;9.70;1.10;;;;;;;9.95;100.00;99297.66;109182;1254;60462;-48
2023/04/20 00:25:34;;;;;;;22.70;1.60;;;;;;;9.94;100.00;99296.44;109219;1253;58307;-49
2023/04/20 00:28:02;;;;;;;22.90;0.80;;;;;;;9.95;100.00;99295.50;109230;1253;73862;-48
2023/04/20 00:30:30;;;;;;;17.90;0.70;;;;;;;9.96;100.00;99288.27;109217;1253;65795;-49
2023/04/20 00:32:58;;;;;;;8.80;0.70;;;;;;;9.96;100.00;99286.42;109197;1253;70740;-48
2023/04/20 00:35:26;;;;;;;17.40;0.90;;;;;;;9.97;100.00;99282.83;109167;1253;60698;-49
2023/04/20 00:37:54;;;;;;;16.70;0.70;;;;;;;9.97;100.00;99282.11;108759;1253;59028;-46
2023/04/20 00:40:25;;;;;;;12.60;0.70;;;;;;;9.97;100.00;99279.60;109191;1253;73122;-47
2023/04/20 00:42:53;;;;;;;19.80;1.10;;;;;;;9.97;100.00;99274.56;108414;1254;68237;-47
2023/04/20 00:45:23;;;;;;;11.10;0.90;;;;;;;9.97;100.00;99274.91;105345;1254;71456;-48
2023/04/20 00:47:51;;;;;;;13.60;1.00;;;;;;;9.98;100.00;99269.34;109150;1254;59187;-50
2023/04/20 00:50:20;;;;;;;16.80;0.90;;;;;;;9.98;100.00;99267.88;107214;1254;60416;-50
2023/04/20 00:52:48;;;;;;;11.00;1.00;;;;;;;9.98;100.00;99266.13;105535;1254;73712;-48
2023/04/20 00:55:17;;;;;;;16.60;1.40;;;;;;;9.97;100.00;99263.09;108997;1254;66659;-47
2023/04/20 00:57:45;;;;;;;23.00;1.20;;;;;;;9.97;100.00;99260.59;107746;1259;72915;-47
2023/04/20 01:00:13;;;;;;;10.30;0.90;;;;;;;9.96;100.00;99257.39;106333;1256;60983;-46
2023/04/20 01:02:41;;;;;;;12.90;1.10;;;;;;;9.96;100.00;99256.89;105435;1254;60638;-46
2023/04/20 01:05:10;;;;;;;14.80;1.30;;;;;;;9.95;100.00;99250.11;106071;1253;74070;-49
2023/04/20 01:07:38;;;;;;;32.70;1.60;;;;;;;9.95;100.00;99251.39;106717;1259;66742;-45
2023/04/20 01:10:07;;;;;;;16.40;0.90;;;;;;;9.95;100.00;99251.77;105649;1256;73430;-46
2023/04/20 01:12:35;;;;;;;9.60;0.80;;;;;;;9.94;100.00;99256.28;105625;1256;61648;-48
2023/04/20 01:15:07;;;;;;;16.60;1.30;;;;;;;9.93;100.00;99252.77;105598;1252;60539;-47
2023/04/20 01:17:38;;;;;;;11.40;1.10;;;;;;;9.91;100.00;99250.73;105630;1253;72786;-50
2023/04/20 01:20:08;;;;;;;13.20;0.80;;;;;;;9.88;100.00;99250.10;105582;1253;66705;-48
2023/04/20 01:22:46;;;;;;;15.00;1.40;;;;;;;9.85;100.00;99245.64;105566;1254;72451;-47
2023/04/20 01:25:14;;;;;;;10.50;0.80;;;;;;;9.84;100.00;99244.98;105553;1256;60636;-47
2023/04/20 01:27:43;;;;;;;13.50;1.00;;;;;;;9.83;100.00;99244.30;105561;1254;60425;-49
2023/04/20 01:30:11;;;;;;;21.50;1.50;;;;;;;9.83;100.00;99242.73;106114;1253;74446;-50
2023/04/20 01:32:39;;;;;;;14.70;1.10;;;;;;;9.80;100.00;99242.30;105409;1257;67185;-50
2023/04/20 01:35:08;;;;;;;20.30;1.00;;;;;;;9.77;100.00;99240.71;106309;1253;73043;-50
2023/04/20 01:37:38;;;;;;;13.10;0.80;;;;;;;9.73;100.00;99239.47;105610;1253;60630;-50
2023/04/20 01:40:10;;;;;;;16.90;1.10;;;;;;;9.70;100.00;99240.02;105687;1254;60541;-49
2023/04/20 01:42:39;;;;;;;13.70;1.20;;;;;;;9.68;100.00;99243.14;105886;1256;74236;-50
2023/04/20 01:45:07;;;;;;;12.40;1.20;;;;;;;9.68;100.00;99247.83;105763;1256;67192;-51
2023/04/20 01:47:35;;;;;;;17.90;1.50;;;;;;;9.67;100.00;99245.71;105518;1254;72888;-48
2023/04/20 01:50:04;;;;;;;12.20;1.00;;;;;;;9.65;100.00;99247.05;105825;1254;60534;-50
2023/04/20 01:52:32;;;;;;;16.80;1.20;;;;;;;9.65;100.00;99242.59;106116;1254;61320;-51
2023/04/20 01:55:00;;;;;;;16.20;1.60;;;;;;;9.65;100.00;99238.48;106071;1254;74717;-49
2023/04/20 01:57:29;;;;;;;14.30;1.70;;;;;;;9.65;100.00;99236.48;105679;1256;68355;-48
2023/04/20 01:59:57;;;;;;;14.40;1.30;;;;;;;9.64;100.00;99230.30;105480;1254;72888;-49
2023/04/20 02:02:24;;;;;;;12.70;1.30;;;;;;;9.63;100.00;99230.86;105645;1257;61110;-49
2023/04/20 02:04:54;;;;;;;13.60;1.40;;;;;;;9.62;100.00;99226.43;106305;1257;60505;-50
2023/04/20 02:07:22;;;;;;;17.50;1.90;;;;;;;9.62;100.00;99225.55;105612;1254;74792;-49
2023/04/20 02:09:50;;;;;;;10.20;0.80;;;;;;;9.62;100.00;99222.86;105854;1253;68152;-50
2023/04/20 02:12:18;;;;;;;15.30;0.90;;;;;;;9.61;100.00;99222.39;105973;1256;72652;-51
2023/04/20 02:14:46;;;;;;;20.10;0.80;;;;;;;9.60;100.00;99222.98;105921;1256;60461;-51
2023/04/20 02:17:14;;;;;;;9.10;0.70;;;;;;;9.59;100.00;99221.95;105930;1253;60802;-48
2023/04/20 02:19:42;;;;;;;13.50;1.10;;;;;;;9.58;100.00;99222.55;105423;1254;74769;-50
2023/04/20 02:22:10;;;;;;;19.00;0.80;;;;;;;9.57;100.00;99219.02;105815;1256;66776;-49
2023/04/20 02:24:38;;;;;;;18.40;1.00;;;;;;;9.56;100.00;99219.45;106304;1253;71807;-50
2023/04/20 02:27:06;;;;;;;13.80;1.40;;;;;;;9.55;100.00;99222.52;105665;1253;60348;-50
2023/04/20 02:29:34;;;;;;;11.50;1.20;;;;;;;9.55;100.00;99216.09;105382;1254;61251;-47
2023/04/20 02:32:03;;;;;;;19.70;1.40;;;;;;;9.54;100.00;99214.48;105557;1256;73224;-51
2023/04/20 02:34:30;;;;;;;16.20;2.60;;;;;;;9.55;100.00;99215.19;105559;1252;66819;-51
2023/04/20 02:36:58;;;;;;;12.50;1.20;;;;;;;9.55;100.00;99214.46;105578;1253;72090;-49
2023/04/20 02:39:26;;;;;;;19.50;0.80;;;;;;;9.56;100.00;99211.56;105509;1256;60424;-50
2023/04/20 02:41:54;;;;;;;20.00;1.00;;;;;;;9.55;100.00;99212.84;105394;1256;59828;-50
2023/04/20 02:44:23;;;;;;;11.80;1.20;;;;;;;9.54;100.00;99210.21;106122;1256;73265;-50
2023/04/20 02:46:51;;;;;;;17.20;1.00;;;;;;;9.53;100.00;99205.92;105808;1253;66111;-50
2023/04/20 02:49:20;;;;;;;10.90;1.00;;;;;;;9.53;100.00;99204.05;106572;1254;71673;-49
2023/04/20 02:51:48;;;;;;;11.10;1.10;;;;;;;9.52;100.00;99203.71;106714;1256;60412;-49
2023/04/20 02:54:16;;;;;;;13.80;1.00;;;;;;;9.52;100.00;99203.02;105513;1256;60430;-49
2023/04/20 02:56:44;;;;;;;20.60;1.40;;;;;;;9.51;100.00;99192.84;106008;1253;73788;-49
2023/04/20 02:59:12;;;;;;;9.00;0.80;;;;;;;9.50;100.00;99193.42;105468;1256;67037;-50
2023/04/20 03:02:06;;;;;;;17.30;1.30;;;;;;;9.48;100.00;99197.07;105376;1256;73835;-48
2023/04/20 03:04:35;;;;;;;11.40;0.80;;;;;;;9.47;100.00;99191.92;106988;1258;60922;-49
2023/04/20 03:07:19;;;;;;;12.70;1.20;;;;;;;9.46;100.00;99195.40;109090;1252;58251;-52
2023/04/20 03:09:48;;;;;;;18.90;1.00;;;;;;;9.45;100.00;99197.04;109181;1253;72257;-52
2023/04/20 03:12:23;;;;;;;13.20;1.00;;;;;;;9.45;100.00;99198.52;109076;1253;68345;-52
2023/04/20 03:15:10;;;;;;;12.00;0.90;;;;;;;9.45;100.00;99197.39;109240;1253;73221;-51
2023/04/20 03:17:45;;;;;;;17.50;0.90;;;;;;;9.45;100.00;99199.89;109095;1253;61193;-50
2023/04/20 03:20:15;;;;;;;14.10;0.90;;;;;;;9.46;100.00;99198.07;106831;1254;60449;-50
2023/04/20 03:22:43;;;;;;;12.30;0.80;;;;;;;9.47;100.00;99197.66;109026;1254;72088;-50
2023/04/20 03:25:11;;;;;;;3.80;0.70;;;;;;;9.49;100.00;99195.63;106105;1255;66173;-51
2023/04/20 03:27:54;;;;;;;11.60;0.80;;;;;;;9.49;100.00;99187.89;109147;1253;73230;-49
2023/04/20 03:30:22;;;;;;;7.80;0.80;;;;;;;9.53;100.00;99189.33;109143;1253;60346;-49
2023/04/20 03:32:54;;;;;;;11.90;0.90;;;;;;;9.54;100.00;99188.52;108853;1253;58458;-50
2023/04/20 03:35:22;;;;;;;16.70;1.20;;;;;;;9.56;100.00;99189.52;109014;1253;74018;-50
2023/04/20 03:37:50;;;;;;;19.00;1.00;;;;;;;9.57;100.00;99193.75;108260;1254;69721;-49
2023/04/20 03:40:18;;;;;;;6.40;0.80;;;;;;;9.58;100.00;99190.29;105514;1254;72360;-51
2023/04/20 03:42:47;;;;;;;21.30;1.10;;;;;;;9.59;100.00;99190.98;105468;1259;60983;-50
2023/04/20 03:45:15;;;;;;;7.90;0.90;;;;;;;9.60;100.00;99189.33;105384;1258;60611;-51
2023/04/20 03:47:43;;;;;;;10.50;0.80;;;;;;;9.60;100.00;99186.96;106894;1254;74857;-51
2023/04/20 03:50:11;;;;;;;12.90;1.10;;;;;;;9.61;100.00;99185.85;105534;1254;69583;-50
2023/04/20 03:52:39;;;;;;;16.00;0.80;;;;;;;9.63;100.00;99186.09;109188;1253;71751;-52
2023/04/20 03:55:08;;;;;;;10.90;1.10;;;;;;;9.64;100.00;99187.44;106914;1259;60752;-50
2023/04/20 03:57:38;;;;;;;9.20;0.70;;;;;;;9.65;100.00;99188.46;105646;1256;60575;-51
2023/04/20 04:00:09;;;;;;;7.00;0.70;;;;;;;9.67;100.00;99186.41;105776;1253;73350;-50
2023/04/20 04:02:46;;;;;;;9.90;0.70;;;;;;;9.69;100.00;99187.55;105509;1256;68295;-50
2023/04/20 04:05:19;;;;;;;12.90;0.80;;;;;;;9.71;100.00;99180.48;105352;1259;71915;-49
2023/04/20 04:07:49;;;;;;;6.60;0.70;;;;;;;9.72;100.00;99181.64;105762;1256;60537;-51
2023/04/20 04:10:17;;;;;;;9.10;0.80;;;;;;;9.72;100.00;99177.70;105599;1254;60835;-51
2023/04/20 04:12:46;;;;;;;7.30;0.80;;;;;;;9.72;100.00;99179.11;105495;1252;73141;-50
2023/04/20 04:15:14;;;;;;;11.20;0.70;;;;;;;9.74;100.00;99177.98;105617;1255;67906;-49
2023/04/20 04:17:48;;;;;;;11.50;0.80;;;;;;;9.72;100.00;99182.70;105221;1254;333119;-50
2023/04/20 04:21:46;;;;;;;12.30;0.70;;;;;;;9.71;100.00;99181.89;102175;1297;600615;-51
2023/04/20 04:24:16;;;;;;;8.90;0.80;;;;;;;9.69;100.00;99180.04;104757;1272;60601;-50
2023/04/20 04:26:57;;;;;;;6.30;0.80;;;;;;;9.69;100.00;99177.15;104633;1269;60479;-51
2023/04/20 04:29:25;;;;;;;11.50;0.70;;;;;;;9.70;100.00;99181.21;104499;1274;73812;-51
2023/04/20 04:31:54;;;;;;;10.20;0.90;;;;;;;9.72;100.00;99178.25;104401;1267;68490;-51
2023/04/20 04:34:22;;;;;;;10.60;0.90;;;;;;;9.73;100.00;99182.30;105169;1269;157796;-50
2023/04/20 04:36:51;;;;;;;10.40;0.80;;;;;;;9.74;100.00;99186.95;105060;1265;59344;-49
2023/04/20 04:39:25;;;;;;;9.60;0.70;;;;;;;9.74;100.00;99180.83;104351;1270;59443;-50
2023/04/20 04:42:00;;;;;;;10.50;0.80;;;;;;;9.75;100.00;99183.29;104834;1265;72092;-51
2023/04/20 04:44:38;;;;;;;10.50;0.90;;;;;;;9.78;100.00;99184.20;104085;1264;65558;-49
2023/04/20 04:47:08;;;;;;;15.40;1.10;;;;;;;9.81;100.00;99186.35;104016;1270;71645;-50
2023/04/20 04:49:36;;;;;;;9.90;1.40;;;;;;;9.83;100.00;99191.48;104626;1270;60285;-50
2023/04/20 04:52:07;;;;;;;12.40;1.10;;;;;;;9.84;100.00;99189.60;105215;1266;60268;-50
2023/04/20 04:54:36;;;;;;;15.80;1.20;;;;;;;9.84;100.00;99189.09;104801;1265;71749;-50
2023/04/20 04:57:04;;;;;;;6.00;1.20;;;;;;;9.83;100.00;99184.45;104822;1265;67316;-49
2023/04/20 04:59:32;;;;;;;26.70;1.30;;;;;;;9.83;100.00;99181.24;104454;1268;71416;-51
2023/04/20 05:02:00;;;;;;;15.70;1.40;;;;;;;9.81;100.00;99181.69;104076;1265;60696;-53
2023/04/20 05:04:29;;;;;;;3.70;0.60;;;;;;;9.79;100.00;99184.30;104762;1263;59596;-51
2023/04/20 05:06:57;;;;;;;21.10;1.00;;;;;;;9.77;100.00;99184.77;104468;1265;72346;-50
2023/04/20 05:09:32;;;;;;;7.20;1.00;;;;;;;9.75;100.00;99186.33;104304;1268;67692;-50
2023/04/20 05:12:01;;;;;;;10.60;0.60;;;;;;;9.74;100.00;99190.14;104517;1266;72706;-50
2023/04/20 05:14:30;;;;;;;17.10;1.10;;;;;;;9.71;100.00;99184.20;104973;1268;60613;-48
2023/04/20 05:16:59;;;;;;;8.70;0.80;;;;;;;9.68;100.00;99185.44;105233;1266;61378;-53
2023/04/20 05:19:27;;;;;;;7.60;1.00;;;;;;;9.65;100.00;99179.33;104880;1266;71251;-51
2023/04/20 05:21:54;;;;;;;12.30;1.10;;;;;;;9.65;100.00;99179.73;105050;1268;67231;-50
2023/04/20 05:24:22;;;;;;;12.80;1.10;;;;;;;9.66;100.00;99180.19;104704;1265;72731;-50
2023/04/20 05:26:50;;;;;;;12.70;0.80;;;;;;;9.66;100.00;99181.42;104686;1265;61241;-50
2023/04/20 05:29:18;;;;;;;8.80;0.80;;;;;;;9.63;100.00;99183.19;104728;1265;59816;-50
2023/04/20 05:31:46;;;;;;;11.80;1.40;;;;;;;9.59;100.00;99188.27;104664;1268;73370;-47
2023/04/20 05:34:15;;;;;;;12.30;1.10;;;;;;;9.57;100.00;99191.05;104928;1265;66024;-51
2023/04/20 05:36:43;;;;;;;14.80;2.10;;;;;;;9.51;100.00;99189.22;104772;1265;72108;-51
2023/04/20 05:39:11;;;;;;;15.00;1.30;;;;;;;9.48;100.00;99194.05;104265;1270;60836;-51
2023/04/20 05:41:39;;;;;;;11.50;1.60;;;;;;;9.48;100.00;99192.78;104865;1266;60959;-52
2023/04/20 05:44:07;;;;;;;12.30;0.80;;;;;;;9.48;100.00;99198.67;105213;1266;72310;-50
2023/04/20 05:46:36;;;;;;;7.10;1.10;;;;;;;9.47;100.00;99201.78;104584;1265;68317;-48
2023/04/20 05:49:05;;;;;;;12.90;1.50;;;;;;;9.42;100.00;99198.86;105565;1266;71446;-50
2023/04/20 05:51:33;;;;;;;14.80;1.40;;;;;;;9.39;100.00;99207.40;105076;1269;63514;-51
2023/04/20 05:54:01;;;;;;;19.30;1.30;;;;;;;9.36;100.00;99206.31;104553;1266;61548;-52
2023/04/20 05:56:30;;;;;;;8.40;0.90;;;;;;;9.29;100.00;99206.71;106557;1265;71816;-50
2023/04/20 05:58:58;;;;;;;9.30;1.20;;;;;;;9.22;100.00;99207.44;105502;1265;68209;-51
2023/04/20 06:01:26;;;;;;;16.00;1.80;;;;;;;9.16;100.00;99206.64;104960;1270;74100;-52
2023/04/20 06:03:54;;;;;;;13.80;1.80;;;;;;;9.10;100.00;99216.98;104331;1269;62330;-51
2023/04/20 06:06:22;;;;;;;17.50;1.70;;;;;;;9.04;100.00;99218.89;104529;1266;60704;-51
2023/04/20 06:08:51;;;;;;;13.60;1.70;;;;;;;8.96;100.00;99219.29;104491;1269;72549;-50
2023/04/20 06:11:19;;;;;;;11.30;1.10;;;;;;;8.88;100.00;99211.14;104428;1265;67881;-52
2023/04/20 06:13:47;;;;;;;20.10;1.60;;;;;;;8.82;100.00;99207.47;105816;1265;72880;-53
2023/04/20 06:16:15;;;;;;;15.40;2.00;;;;;;;8.79;100.00;99209.42;105345;1269;61727;-52
2023/04/20 06:18:43;;;;;;;17.70;2.10;;;;;;;8.74;100.00;99208.60;104803;1266;60053;-51
2023/04/20 06:21:11;;;;;;;19.90;2.30;;;;;;;8.70;100.00;99214.13;104550;1266;72119;-50
2023/04/20 06:23:39;;;;;;;21.90;2.00;;;;;;;8.70;100.00;99203.05;104081;1265;66995;-50
2023/04/20 06:26:09;;;;;;;15.00;1.30;;;;;;;8.72;100.00;99210.66;108350;1265;73488;-52
2023/04/20 06:28:37;;;;;;;9.40;1.10;;;;;;;8.75;100.00;99205.16;108257;1265;61995;-52
2023/04/20 06:31:05;;;;;;;14.50;1.40;;;;;;;8.79;100.00;99207.10;108289;1265;59276;-53
2023/04/20 06:33:33;;;;;;;14.10;1.50;;;;;;;8.81;100.00;99202.52;109061;1254;72141;-52
2023/04/20 06:36:01;;;;;;;11.90;0.90;;;;;;;8.81;100.00;99202.35;108822;1254;65146;-52
2023/04/20 06:38:29;;;;;;;13.30;0.80;;;;;;;8.83;100.00;99204.76;108418;1254;71774;-52
2023/04/20 06:41:00;;;;;;;17.00;2.30;;;;;;;8.84;100.00;99199.52;105528;1258;62265;-50
2023/04/20 06:43:29;;;;;;;19.10;1.90;;;;;;;8.87;100.00;99195.23;105403;1258;59723;-50
2023/04/20 06:45:57;;;;;;;19.20;1.60;;;;;;;8.92;100.00;99193.19;108996;1255;72739;-53
2023/04/20 06:48:25;;;;;;;15.70;1.60;;;;;;;8.95;100.00;99190.73;108985;1256;68069;-51
2023/04/20 06:51:00;;;;;;;12.50;2.30;;;;;;;9.00;100.00;99185.23;109046;1256;71550;-52
2023/04/20 06:53:28;;;;;;;13.30;2.10;;;;;;;9.09;100.00;99181.77;109049;1254;61022;-53
2023/04/20 06:55:56;;;;;;;20.50;2.10;;;;;;;9.19;100.00;99173.40;109025;1255;58638;-52
2023/04/20 06:58:24;;;;;;;13.40;1.20;;;;;;;9.24;100.00;99169.01;108983;1255;71696;-53
2023/04/20 07:00:52;;;;;;;14.60;2.90;;;;;;;9.31;100.00;99162.02;109053;1254;66328;-53
2023/04/20 07:03:20;;;;;;;18.40;3.10;;;;;;;9.39;100.00;99165.31;109042;1254;72275;-51
2023/04/20 07:05:48;;;;;;;19.60;1.80;;;;;;;9.47;100.00;99162.91;109040;1253;59811;-52
2023/04/20 07:08:16;;;;;;;12.70;1.30;;;;;;;9.55;100.00;99158.75;109039;1254;59338;-52
2023/04/20 07:10:44;;;;;;;12.30;1.50;;;;;;;9.63;100.00;99149.88;109140;1255;73282;-53
2023/04/20 07:13:12;;;;;;;8.70;1.60;;;;;;;9.71;100.00;99152.16;109085;1253;66907;-52
2023/04/20 07:15:40;;;;;;;20.80;2.20;;;;;;;9.73;100.00;99150.95;108451;1254;71849;-51
2023/04/20 07:18:08;;;;;;;10.10;1.80;;;;;;;9.71;100.00;99145.85;105911;1258;62156;-50
2023/04/20 07:20:36;;;;;;;14.80;1.60;;;;;;;9.70;100.00;99144.65;105469;1258;60585;-50
2023/04/20 07:23:04;;;;;;;20.40;2.70;;;;;;;9.71;100.00;99150.32;105832;1258;73453;-51
2023/04/20 07:25:32;;;;;;;13.70;1.10;;;;;;;9.73;100.00;99148.28;105350;1256;68208;-50
2023/04/20 07:28:00;;;;;;;17.90;1.50;;;;;;;9.72;100.00;99147.46;105361;1256;72865;-51
2023/04/20 07:30:30;;;;;;;13.20;1.40;;;;;;;9.70;100.00;99144.16;106301;1258;61423;-49
2023/04/20 07:32:58;;;;;;;11.40;1.40;;;;;;;9.67;100.00;99149.88;105285;1256;60457;-49
2023/04/20 07:35:26;;;;;;;15.40;1.70;;;;;;;9.65;100.00;99149.43;105377;1256;71994;-49
2023/04/20 07:37:54;;;;;;;13.70;1.20;;;;;;;9.66;100.00;99149.35;105286;1256;67919;-50
2023/04/20 07:40:22;;;;;;;19.90;1.10;;;;;;;9.67;100.00;99150.05;105267;1256;71903;-49
2023/04/20 07:42:50;;;;;;;9.90;0.90;;;;;;;9.66;100.00;99145.95;105989;1253;62793;-51
2023/04/20 07:45:18;;;;;;;15.00;1.40;;;;;;;9.66;100.00;99145.44;105264;1256;60318;-50
2023/04/20 07:47:50;;;;;;;7.90;1.20;;;;;;;9.67;100.00;99145.73;105355;1254;71195;-51
2023/04/20 07:50:18;;;;;;;12.70;1.10;;;;;;;9.69;100.00;99152.60;105840;1256;66809;-51
2023/04/20 07:52:46;;;;;;;13.30;1.50;;;;;;;9.68;100.00;99138.91;105615;1258;71832;-52
2023/04/20 07:55:16;;;;;;;23.90;3.70;;;;;;;9.68;100.00;99141.95;105389;1254;61251;-51
2023/04/20 07:57:44;;;;;;;17.00;1.20;;;;;;;9.69;100.00;99135.81;105404;1257;59644;-51
2023/04/20 08:00:13;;;;;;;17.50;1.60;;;;;;;9.68;100.00;99134.73;105496;1256;73484;-50
2023/04/20 08:02:44;;;;;;;18.20;1.90;;;;;;;9.72;100.00;99138.85;105537;1256;67106;-49
2023/04/20 08:05:13;;;;;;;12.70;1.10;;;;;;;9.76;100.00;99143.10;105638;1256;71652;-50
2023/04/20 08:07:41;;;;;;;18.40;1.60;;;;;;;9.78;100.00;99142.42;107260;1258;61360;-50
2023/04/20 08:10:10;;;;;;;22.80;1.00;;;;;;;9.84;100.00;99146.60;105344;1258;59620;-50
2023/04/20 08:12:39;;;;;;;17.60;2.10;;;;;;;9.88;100.00;99144.55;105409;1257;71871;-49
2023/04/20 08:15:08;;;;;;;16.20;1.40;;;;;;;9.92;100.00;99142.43;105492;1258;68628;-50
2023/04/20 08:17:36;;;;;;;13.20;1.20;;;;;;;9.92;100.00;99138.27;105418;1256;71701;-47
2023/04/20 08:20:06;;;;;;;14.70;1.40;;;;;;;9.92;100.00;99146.73;105457;1256;60673;-50
2023/04/20 08:22:35;;;;;;;24.90;1.60;;;;;;;9.89;100.00;99149.34;105844;1258;59653;-49
2023/04/20 08:25:03;;;;;;;14.60;2.00;;;;;;;9.88;100.00;99143.71;107393;1256;71994;-49
2023/04/20 08:27:32;;;;;;;10.50;1.00;;;;;;;9.84;100.00;99143.34;105665;1256;67098;-50
2023/04/20 08:30:02;;;;;;;12.70;0.90;;;;;;;9.84;100.00;99143.38;108099;1255;71941;-49
2023/04/20 08:32:31;;;;;;;13.80;1.00;;;;;;;9.84;100.00;99146.77;105498;1256;61958;-50
2023/04/20 08:35:00;;;;;;;18.70;1.20;;;;;;;9.82;100.00;99147.98;105645;1258;60342;-49
2023/04/20 08:37:28;;;;;;;19.70;1.50;;;;;;;9.80;100.00;99151.12;105392;1258;75072;-48
2023/04/20 08:39:59;;;;;;;12.40;0.80;;;;;;;9.75;100.00;99155.68;105394;1258;66313;-50
2023/04/20 08:42:27;;;;;;;13.80;0.90;;;;;;;9.67;100.00;99154.53;105325;1258;72699;-50
2023/04/20 08:44:56;;;;;;;11.90;1.10;;;;;;;9.58;100.00;99150.86;105283;1254;63149;-52
2023/04/20 08:47:24;;;;;;;19.90;1.70;;;;;;;9.53;100.00;99148.65;105854;1258;60458;-52
2023/04/20 08:49:56;;;;;;;8.70;1.10;;;;;;;9.49;100.00;99153.16;105680;1256;73350;-53
2023/04/20 08:52:24;;;;;;;22.00;1.70;;;;;;;9.45;100.00;99152.11;105363;1258;67171;-52
2023/04/20 08:54:52;;;;;;;11.50;1.10;;;;;;;9.40;100.00;99147.55;106265;1256;72071;-53
2023/04/20 08:57:25;;;;;;;8.70;1.00;;;;;;;9.37;100.00;99159.37;105681;1257;62306;-50
2023/04/20 08:59:53;;;;;;;14.60;1.50;;;;;;;9.31;100.00;99153.23;105790;1258;60540;-49
2023/04/20 09:02:23;;;;;;;14.80;1.10;;;;;;;9.26;100.00;99155.83;105338;1260;73255;-50
2023/04/20 09:05:04;;;;;;;13.80;1.50;;;;;;;9.25;100.00;99151.97;105513;1256;67953;-51
2023/04/20 09:07:32;;;;;;;10.70;1.40;;;;;;;9.25;100.00;99157.13;105785;1256;71494;-48
2023/04/20 09:10:01;;;;;;;14.20;0.80;;;;;;;9.22;100.00;99157.11;105956;1256;60862;-52
2023/04/20 09:12:41;;;;;;;5.40;1.00;;;;;;;9.19;100.00;99158.89;107141;1256;60729;-52
2023/04/20 09:15:10;;;;;;;8.60;1.50;;;;;;;9.17;100.00;99163.10;105323;1256;71555;-51
2023/04/20 09:17:39;;;;;;;8.60;0.70;;;;;;;9.13;100.00;99165.98;105366;1256;68071;-52
2023/04/20 09:20:10;;;;;;;14.90;1.30;;;;;;;9.04;100.00;99168.02;108006;1258;71984;-50
2023/04/20 09:22:39;;;;;;;8.40;1.00;;;;;;;8.99;100.00;99163.31;105343;1257;62814;-52
2023/04/20 09:25:16;;;;;;;14.30;1.40;;;;;;;8.98;100.00;99165.36;105283;1256;60496;-51
2023/04/20 09:27:58;;;;;;;9.00;1.30;;;;;;;8.97;100.00;99162.53;105139;1258;74049;-50
2023/04/20 09:30:36;;;;;;;13.70;1.00;;;;;;;8.92;100.00;99160.97;105192;1254;68068;-51
2023/04/20 09:33:06;;;;;;;8.00;0.80;;;;;;;8.90;100.00;99162.19;105953;1259;73326;-50
2023/04/20 09:35:36;;;;;;;11.20;1.50;;;;;;;8.87;100.00;99158.38;105417;1258;62844;-50
2023/04/20 09:38:08;;;;;;;8.10;0.80;;;;;;;8.82;100.00;99157.23;105916;1258;60563;-49
2023/04/20 09:40:36;;;;;;;13.90;1.80;;;;;;;8.80;100.00;99158.19;105340;1258;73510;-51
2023/04/20 09:43:19;;;;;;;14.10;1.20;;;;;;;8.79;100.00;99150.74;108256;1258;67196;-52
2023/04/20 09:45:47;;;;;;;8.80;0.80;;;;;;;8.78;100.00;99153.10;108795;1255;72954;-52
2023/04/20 09:48:18;;;;;;;8.40;1.00;;;;;;;8.77;100.00;99156.00;108830;1255;61876;-52
2023/04/20 09:50:46;;;;;;;13.30;1.60;;;;;;;8.77;100.00;99158.17;108895;1254;59157;-53
2023/04/20 09:53:18;;;;;;;15.10;0.90;;;;;;;8.78;100.00;99163.47;109034;1254;72639;-52
2023/04/20 09:55:47;;;;;;;11.40;1.50;;;;;;;8.77;100.00;99155.65;109036;1256;66194;-52
2023/04/20 09:58:22;;;;;;;2.50;0.60;;;;;;;8.77;100.00;99156.73;109043;1254;71437;-52
2023/04/20 10:00:50;;;;;;;18.50;1.10;;;;;;;8.78;100.00;99155.44;107154;1258;65048;-49
2023/04/20 10:03:20;;;;;;;15.20;1.00;;;;;;;8.79;100.00;99159.34;108966;1256;60652;-52
2023/04/20 10:05:48;;;;;;;14.70;0.80;;;;;;;8.80;100.00;99156.95;107941;1258;73829;-50
2023/04/20 10:08:20;;;;;;;14.50;1.30;;;;;;;8.84;100.00;99155.70;108812;1256;65583;-52
2023/04/20 10:10:49;;;;;;;7.20;1.20;;;;;;;8.86;100.00;99155.19;105364;1257;72110;-50
2023/04/20 10:13:22;;;;;;;10.70;0.90;;;;;;;8.86;100.00;99160.92;105125;1256;62198;-50
2023/04/20 10:15:50;;;;;;;14.70;0.90;;;;;;;8.88;100.00;99153.30;109091;1254;60467;-50
2023/04/20 10:18:19;;;;;;;13.80;1.00;;;;;;;8.92;100.00;99161.70;108946;1254;73505;-50
2023/04/20 10:20:47;;;;;;;11.40;1.20;;;;;;;8.95;100.00;99155.80;108942;1256;65713;-50
2023/04/20 10:23:17;;;;;;;12.20;1.60;;;;;;;8.97;100.00;99159.29;108938;1255;70376;-50
2023/04/20 10:25:56;;;;;;;10.80;0.80;;;;;;;9.00;100.00;99158.41;109004;1254;63395;-51
2023/04/20 10:28:24;;;;;;;13.60;0.90;;;;;;;9.06;100.00;99157.77;108953;1253;59695;-50
2023/04/20 10:30:52;;;;;;;10.50;1.00;;;;;;;9.12;100.00;99154.06;108810;1256;73496;-51
2023/04/20 10:33:21;;;;;;;8.50;1.10;;;;;;;9.19;100.00;99157.64;108812;1256;69163;-51
2023/04/20 10:35:51;;;;;;;5.80;0.90;;;;;;;9.25;100.00;99155.16;108785;1256;71986;-52
2023/04/20 10:38:32;;;;;;;14.00;1.20;;;;;;;9.30;100.00;99159.00;108573;1254;61938;-50
2023/04/20 10:41:11;;;;;;;11.90;0.70;;;;;;;9.37;100.00;99157.77;105178;1257;60434;-48
2023/04/20 10:43:42;;;;;;;16.50;0.90;;;;;;;9.43;100.00;99156.89;108979;1256;73379;-51
2023/04/20 10:46:17;;;;;;;12.00;0.80;;;;;;;9.47;100.00;99156.48;108115;1254;67177;-51
2023/04/20 10:49:11;;;;;;;9.20;1.80;;;;;;;9.49;100.00;99152.83;105836;1258;72085;-51
2023/04/20 10:51:49;;;;;;;6.70;0.90;;;;;;;9.49;100.00;99150.30;105288;1259;62218;-50
2023/04/20 10:54:18;;;;;;;9.70;0.80;;;;;;;9.49;100.00;99153.50;108919;1254;59483;-52
2023/04/20 10:56:50;;;;;;;8.40;1.10;;;;;;;9.50;100.00;99155.10;108728;1256;74793;-52
2023/04/20 10:59:20;;;;;;;9.40;1.50;;;;;;;9.48;100.00;99154.27;105256;1256;67990;-50
2023/04/20 11:01:49;;;;;;;10.30;1.20;;;;;;;9.47;100.00;99152.54;108940;1254;72718;-52
2023/04/20 11:04:17;;;;;;;5.40;0.90;;;;;;;9.48;100.00;99152.47;108835;1256;59934;-52
2023/04/20 11:06:46;;;;;;;10.30;0.80;;;;;;;9.51;100.00;99157.16;108898;1254;59842;-53
2023/04/20 11:09:25;;;;;;;9.50;0.90;;;;;;;9.54;100.00;99156.27;107039;1258;72955;-51
2023/04/20 11:12:06;;;;;;;11.70;1.10;;;;;;;9.56;100.00;99156.73;108882;1258;67209;-52
2023/04/20 11:14:39;;;;;;;8.30;0.90;;;;;;;9.60;100.00;99159.02;108043;1258;71782;-49
2023/04/20 11:17:07;;;;;;;7.00;1.30;;;;;;;9.64;100.00;99162.93;105540;1259;61764;-52
2023/04/20 11:19:36;;;;;;;11.10;1.20;;;;;;;9.66;100.00;99162.83;105435;1258;60410;-52
2023/04/20 11:22:05;;;;;;;18.30;1.50;;;;;;;9.70;100.00;99161.88;105328;1256;72608;-50
2023/04/20 11:24:34;;;;;;;6.70;0.60;;;;;;;9.73;100.00;99168.32;105342;1258;67001;-52
2023/04/20 11:27:03;;;;;;;10.30;1.20;;;;;;;9.72;100.00;99168.55;105304;1258;72877;-52
2023/04/20 11:29:35;;;;;;;9.50;1.40;;;;;;;9.72;100.00;99168.23;108846;1258;62150;-54
2023/04/20 11:32:07;;;;;;;9.10;0.90;;;;;;;9.74;100.00;99175.27;107967;1257;58188;-53